Latest Weather Observations for Thursday Island

IDQ60801

Issued at 2:32 pm EST Monday 30 March 2020 (issued every 10 minutes, with the page automatically refreshed every 10 minutes)

About weather observations | Map of weather stations | Latest weather observations for QLD | Other Formats
Station Details ID: 200892 Name: TORRES STRAIT NTC AWS Lat: -10.59 Lon: 142.22 Height: 3.0 m
Data from the previous 72 hours. | See also: Recent months for locations in Queensland
Date/Time
EST
Temp
°C
App
Temp
°C
Dew
Point
°C
Rel
Hum
%
Delta-T
°C
Wind Press
QNH
hPa
Press
MSL
hPa
Rain since
9am
mm
Dir  Spd
km/h
Gust
km/h
Spd
kts
Gust
kts
30/02:30pm 28.6 - - - - E 19 26 10 14 1005.6 1005.6 -
30/02:00pm 27.6 - - - - ENE 17 20 9 11 1005.9 1005.9 -
30/01:30pm 27.2 - - - - ENE 26 32 14 17 1006.2 1006.2 -
30/01:00pm 27.5 - - - - ENE 20 24 11 13 1006.8 1006.8 -
30/12:30pm 26.8 - - - - NE 20 24 11 13 1007.2 1007.2 -
30/12:00pm 27.2 - - - - ENE 24 32 13 17 1008.0 1008.0 -
30/11:30am 27.6 - - - - NE 19 22 10 12 1008.3 1008.3 -
30/11:00am 27.6 - - - - ENE 19 24 10 13 1008.6 1008.6 -
30/10:30am 28.5 - - - - SE 15 24 8 13 1009.0 1009.0 -
30/10:00am 28.0 - - - - SSE 13 20 7 11 1009.1 1009.1 -
30/09:30am 28.4 - - - - SE 13 17 7 9 1008.9 1008.9 -
30/09:00am 27.7 - - - - SE 15 19 8 10 1008.7 1008.7 -
30/08:30am 27.8 - - - - SE 15 19 8 10 1008.5 1008.5 -
30/08:00am 27.3 - - - - SE 9 11 5 6 1007.9 1007.9 -
30/07:30am 27.0 - - - - ESE 11 15 6 8 1007.6 1007.6 -
30/07:00am 26.6 - - - - SE 7 15 4 8 1007.2 1007.2 -
30/06:30am 26.4 - - - - ESE 6 9 3 5 1006.7 1006.7 -
30/06:00am 26.0 - - - - SE 2 7 1 4 1006.5 1006.5 -
30/05:30am 25.5 - - - - ESE 11 13 6 7 1006.2 1006.2 -
30/05:00am 25.5 - - - - ESE 22 30 12 16 1006.1 1006.1 -
30/04:30am 25.7 - - - - ESE 26 43 14 23 1006.2 1006.2 -
30/04:00am 26.7 - - - - SE 17 24 9 13 1005.9 1005.9 -
30/03:30am 27.0 - - - - SE 15 20 8 11 1005.9 1005.9 -
30/03:00am 26.4 - - - - SE 15 19 8 10 1005.9 1005.9 -
30/02:30am 26.7 - - - - SE 17 26 9 14 1006.2 1006.2 -
30/02:00am 27.0 - - - - SE 13 17 7 9 1006.3 1006.3 -
30/01:30am 27.0 - - - - ESE 15 19 8 10 1006.5 1006.5 -
30/01:00am 26.5 - - - - ESE 22 33 12 18 1006.9 1006.9 -
30/12:30am 27.4 - - - - ESE 17 22 9 12 1007.4 1007.4 -
30/12:00am 27.4 - - - - ESE 24 32 13 17 1007.7 1007.7 -
 
Date/Time
EST
Temp
°C
App
Temp
°C
Dew
Point
°C
Rel
Hum
%
Delta-T
°C
Wind Press
QNH
hPa
Press
MSL
hPa
Rain since
9am
mm
Dir  Spd
km/h
Gust
km/h
Spd
kts
Gust
kts
29/11:30pm 27.0 - - - - E 17 22 9 12 1007.9 1007.9 -
29/11:00pm 27.7 - - - - SE 19 26 10 14 1008.0 1008.0 -
29/10:30pm 27.8 - - - - ESE 20 26 11 14 1007.9 1007.9 -
29/10:00pm 27.7 - - - - ESE 22 28 12 15 1007.9 1007.9 -
29/09:30pm 27.5 - - - - SE 19 24 10 13 1007.9 1007.9 -
29/09:00pm 27.6 - - - - SE 19 26 10 14 1007.6 1007.6 -
29/08:30pm 27.6 - - - - ESE 17 20 9 11 1007.5 1007.5 -
29/08:00pm 27.8 - - - - ESE 19 24 10 13 1006.9 1006.9 -
29/07:30pm 27.6 - - - - ESE 17 20 9 11 1006.4 1006.4 -
29/07:00pm 27.7 - - - - ESE 17 20 9 11 1005.8 1005.8 -
29/06:30pm 27.8 - - - - ESE 20 26 11 14 1005.3 1005.3 -
29/06:00pm 28.1 - - - - ESE 22 28 12 15 1005.1 1005.1 -
29/05:30pm 28.1 - - - - ESE 22 30 12 16 1004.8 1004.8 -
29/05:00pm 28.1 - - - - ESE 22 30 12 16 1004.8 1004.8 -
29/04:30pm 28.1 - - - - ESE 28 35 15 19 1004.8 1004.8 -
29/04:00pm 28.2 - - - - ESE 28 33 15 18 1004.5 1004.5 -
29/03:30pm 28.2 - - - - E 24 32 13 17 1004.4 1004.4 -
29/03:00pm 27.9 - - - - E 24 32 13 17 1004.7 1004.7 -
29/02:30pm 27.8 - - - - E 26 33 14 18 1005.1 1005.1 -
29/02:00pm 28.3 - - - - E 32 39 17 21 1005.5 1005.5 -
29/01:30pm 28.1 - - - - E 28 35 15 19 1006.0 1006.0 -
29/01:00pm 27.9 - - - - E 32 39 17 21 1006.3 1006.3 -
29/12:30pm 27.9 - - - - ESE 26 33 14 18 1006.6 1006.6 -
29/12:00pm 27.7 - - - - ESE 24 32 13 17 1007.2 1007.2 -
29/11:30am 27.4 - - - - ESE 28 35 15 19 1007.5 1007.5 -
29/11:00am 27.7 - - - - ESE 26 35 14 19 1007.6 1007.6 -
29/10:30am 27.8 - - - - E 26 35 14 19 1007.9 1007.9 -
29/10:00am 27.6 - - - - E 28 33 15 18 1008.3 1008.3 -
29/09:30am 27.2 - - - - ESE 24 32 13 17 1008.3 1008.3 -
29/09:00am 26.6 - - - - ESE 20 28 11 15 1008.1 1008.1 -
29/08:30am 26.3 - - - - ESE 15 20 8 11 1007.6 1007.6 -
29/08:00am 25.9 - - - - E 11 17 6 9 1007.4 1007.4 -
29/07:30am 26.2 - - - - E 15 20 8 11 1007.4 1007.4 -
29/07:00am 26.0 - - - - ESE 15 20 8 11 1007.1 1007.1 -
29/06:30am 25.9 - - - - E 15 17 8 9 1006.9 1006.9 -
29/06:00am 25.5 - - - - E 22 30 12 16 1006.7 1006.7 -
29/05:30am 25.1 - - - - ESE 11 20 6 11 1006.6 1006.6 -
29/05:00am 25.2 - - - - ESE 13 17 7 9 1006.3 1006.3 -
29/04:30am 24.8 - - - - SE 22 33 12 18 1006.5 1006.5 -
29/04:22am 25.2 - - - - E 17 33 9 18 1006.5 1006.5 -
29/04:00am 26.2 - - - - CALM 0 0 0 0 1006.1 1006.1 -
29/03:30am 26.2 - - - - NE 6 9 3 5 1005.9 1005.9 -
29/03:00am 26.0 - - - - NE 7 11 4 6 1006.1 1006.1 -
29/02:30am 25.5 - - - - ENE 20 24 11 13 1006.6 1006.6 -
29/02:00am 25.8 - - - - E 13 17 7 9 1006.9 1006.9 -
29/01:30am 25.7 - - - - E 24 32 13 17 1007.2 1007.2 -
29/01:00am 27.4 - - - - E 20 26 11 14 1007.1 1007.1 -
29/12:30am 27.3 - - - - ESE 19 24 10 13 1007.1 1007.1 -
29/12:00am 27.1 - - - - ESE 17 20 9 11 1007.5 1007.5 -
 
Date/Time
EST
Temp
°C
App
Temp
°C
Dew
Point
°C
Rel
Hum
%
Delta-T
°C
Wind Press
QNH
hPa
Press
MSL
hPa
Rain since
9am
mm
Dir  Spd
km/h
Gust
km/h
Spd
kts
Gust
kts
28/11:30pm 27.1 - - - - SE 17 20 9 11 1007.5 1007.5 -
28/11:00pm 26.9 - - - - SE 13 17 7 9 1007.6 1007.6 -
28/10:30pm 26.0 - - - - E 28 39 15 21 1007.8 1007.8 -
28/10:00pm 26.3 - - - - SE 22 28 12 15 1007.8 1007.8 -
28/09:30pm 27.0 - - - - SE 20 28 11 15 1007.7 1007.7 -
28/09:00pm 27.6 - - - - SE 19 28 10 15 1007.2 1007.2 -
28/08:30pm 27.2 - - - - SE 19 24 10 13 1006.9 1006.9 -
28/08:00pm 27.8 - - - - ESE 17 20 9 11 1006.3 1006.3 -
28/07:30pm 27.4 - - - - E 20 30 11 16 1005.9 1005.9 -
28/07:00pm 27.6 - - - - ESE 19 24 10 13 1005.8 1005.8 -
28/06:30pm 27.7 - - - - ESE 24 33 13 18 1005.6 1005.6 -
28/06:00pm 27.6 - - - - ESE 22 30 12 16 1005.4 1005.4 -
28/05:30pm 27.7 - - - - ESE 22 32 12 17 1005.3 1005.3 -
28/05:00pm 27.7 - - - - ESE 22 30 12 16 1005.0 1005.0 -
28/04:30pm 27.9 - - - - ESE 20 32 11 17 1004.6 1004.6 -
28/04:00pm 27.7 - - - - ESE 24 30 13 16 1004.6 1004.6 -
28/03:30pm 27.7 - - - - ESE 26 33 14 18 1004.6 1004.6 -
28/03:00pm 27.7 - - - - ESE 28 33 15 18 1004.8 1004.8 -
28/02:30pm 27.8 - - - - ESE 32 39 17 21 1005.1 1005.1 -
28/02:00pm 27.8 - - - - E 30 35 16 19 1005.8 1005.8 -
28/01:30pm 27.7 - - - - E 26 32 14 17 1006.4 1006.4 -
28/01:00pm 27.8 - - - - E 20 28 11 15 1006.9 1006.9 -
28/12:30pm 27.1 - - - - E 17 20 9 11 1007.1 1007.1 -
28/12:00pm 26.7 - - - - E 19 22 10 12 1007.5 1007.5 -
28/11:30am 26.3 - - - - ESE 17 22 9 12 1008.2 1008.2 -
28/11:00am 26.0 - - - - ESE 15 19 8 10 1008.6 1008.6 -
28/10:30am 25.8 - - - - ESE 11 15 6 8 1009.0 1009.0 -
28/10:00am 25.4 - - - - SE 13 17 7 9 1009.1 1009.1 -
28/09:30am 24.6 - - - - E 13 20 7 11 1008.6 1008.6 -
28/09:00am 24.6 - - - - E 19 26 10 14 1008.6 1008.6 -
28/08:30am 25.4 - - - - ESE 17 32 9 17 1008.3 1008.3 -
28/08:00am 26.0 - - - - ESE 13 17 7 9 1007.9 1007.9 -
28/07:30am 25.8 - - - - E 15 20 8 11 1007.4 1007.4 -
28/07:00am 26.2 - - - - ESE 19 24 10 13 1007.1 1007.1 -
28/06:30am 26.4 - - - - SE 17 24 9 13 1006.8 1006.8 -
28/06:00am 26.5 - - - - ESE 11 13 6 7 1006.8 1006.8 -
28/05:30am 26.5 - - - - E 11 15 6 8 1006.6 1006.6 -
28/05:00am 26.6 - - - - SE 11 15 6 8 1006.5 1006.5 -
28/04:30am 26.4 - - - - SE 17 20 9 11 1006.6 1006.6 -
28/04:00am 26.5 - - - - SE 15 19 8 10 1006.5 1006.5 -
28/03:30am 26.3 - - - - SE 15 22 8 12 1006.8 1006.8 -
28/03:00am 26.4 - - - - SE 17 22 9 12 1006.8 1006.8 -
28/02:30am 26.4 - - - - SE 15 20 8 11 1007.0 1007.0 -
28/02:00am 26.3 - - - - SE 19 24 10 13 1007.1 1007.1 -
28/01:30am 26.5 - - - - SE 17 20 9 11 1007.4 1007.4 -
28/01:00am 26.6 - - - - SE 13 17 7 9 1007.7 1007.7 -
28/12:30am 26.9 - - - - ESE 17 24 9 13 1008.0 1008.0 -
28/12:00am 27.1 - - - - SSE 15 19 8 10 1008.1 1008.1 -
 
Date/Time
EST
Temp
°C
App
Temp
°C
Dew
Point
°C
Rel
Hum
%
Delta-T
°C
Wind Press
QNH
hPa
Press
MSL
hPa
Rain since
9am
mm
Dir  Spd
km/h
Gust
km/h
Spd
kts
Gust
kts
27/11:30pm 26.9 - - - - S 13 17 7 9 1008.4 1008.4 -
27/11:00pm 27.1 - - - - SE 11 13 6 7 1008.6 1008.6 -
27/10:30pm 27.0 - - - - SE 13 17 7 9 1008.8 1008.8 -
27/10:00pm 27.1 - - - - SE 13 15 7 8 1008.9 1008.9 -
27/09:30pm 27.1 - - - - SE 11 17 6 9 1008.7 1008.7 -
27/09:00pm 27.0 - - - - SE 13 15 7 8 1008.6 1008.6 -
27/08:30pm 27.1 - - - - SE 15 19 8 10 1008.4 1008.4 -
27/08:00pm 27.3 - - - - SE 20 26 11 14 1008.0 1008.0 -
27/07:30pm 27.1 - - - - SSE 15 19 8 10 1007.5 1007.5 -
27/07:00pm 26.8 - - - - SE 13 17 7 9 1007.3 1007.3 -
27/06:30pm 27.4 - - - - SE 17 22 9 12 1006.9 1006.9 -
27/06:00pm 27.5 - - - - SE 15 20 8 11 1006.6 1006.6 -
27/05:30pm 27.7 - - - - SE 19 24 10 13 1006.4 1006.4 -
27/05:00pm 27.6 - - - - SE 15 20 8 11 1006.4 1006.4 -
27/04:30pm 27.4 - - - - SE 20 26 11 14 1006.2 1006.2 -
27/04:00pm 27.5 - - - - SE 19 24 10 13 1006.0 1006.0 -
27/03:30pm 27.1 - - - - SE 19 24 10 13 1006.0 1006.0 -
27/03:00pm 26.9 - - - - SE 17 22 9 12 1006.2 1006.2 -

Other formats

Comma delimited format used in spreadsheet applications
http://www.bom.gov.au/fwo/IDQ60801/IDQ60801.94181.axf

JavaScript Object Notation format (JSON) in row-major order
http://www.bom.gov.au/fwo/IDQ60801/IDQ60801.94181.json

Data quality

Most of these data are generated automatically and are frequently updated. Quality checks on data are not normally performed. It is possible for incorrect values to appear. Refer to information at About Latest Weather Observations and please check the disclaimer before using these data.